Terminal Aerodrome Forecast
Issued by NWS

Home | Current Version | Previous Version | Text Only | Print | Product List | Glossary On
Versions: 1 2 3 4 5 6 7 8 9 10 11 12 13 14 15 16 17 18 19 20 21 22 23 24
000
FTUS42 KMLB 211733
TAFFPR
TAF
KFPR 211733Z 2118/2218 13012KT P6SM SCT040 BKN100
     FM220400 13009KT P6SM VCSH BKN035 OVC060
     FM221200 13011KT P6SM VCSH BKN030 OVC050
     FM221500 14013KT P6SM -SHRA BKN030 OVC050
     FM221600 14013G20KT 4SM -RA OVC050
     FM221700 14013G20KT 4SM TSRA OVC025CB=

USA.gov is the U.S. government's official web portal to all federal, state and local government web resources and services.